sensor_id;sensor_type;location;lat;lon;timestamp;P1;durP1;ratioP1;P2;durP2;ratioP2
61741;SDS011;47650;49.848;9.620;2022-07-10T00:01:15;9.82;;;8.93;;
61741;SDS011;47650;49.848;9.620;2022-07-10T00:03:40;9.98;;;9.15;;
61741;SDS011;47650;49.848;9.620;2022-07-10T00:06:19;8.80;;;8.10;;
61741;SDS011;47650;49.848;9.620;2022-07-10T00:08:44;8.40;;;7.55;;
61741;SDS011;47650;49.848;9.620;2022-07-10T00:11:11;9.15;;;8.32;;
61741;SDS011;47650;49.848;9.620;2022-07-10T00:13:42;8.88;;;7.97;;
61741;SDS011;47650;49.848;9.620;2022-07-10T00:16:08;9.38;;;8.57;;
61741;SDS011;47650;49.848;9.620;2022-07-10T00:18:33;8.38;;;7.68;;
61741;SDS011;47650;49.848;9.620;2022-07-10T00:21:02;8.82;;;8.07;;
61741;SDS011;47650;49.848;9.620;2022-07-10T00:23:29;8.82;;;8.02;;
61741;SDS011;47650;49.848;9.620;2022-07-10T00:25:56;9.32;;;8.50;;
61741;SDS011;47650;49.848;9.620;2022-07-10T00:28:27;10.27;;;9.48;;
61741;SDS011;47650;49.848;9.620;2022-07-10T00:30:58;12.05;;;10.85;;
61741;SDS011;47650;49.848;9.620;2022-07-10T00:33:40;8.88;;;7.93;;
61741;SDS011;47650;49.848;9.620;2022-07-10T00:36:06;9.77;;;8.98;;
61741;SDS011;47650;49.848;9.620;2022-07-10T00:38:32;9.77;;;8.75;;
61741;SDS011;47650;49.848;9.620;2022-07-10T00:40:58;10.23;;;9.38;;
61741;SDS011;47650;49.848;9.620;2022-07-10T00:43:23;10.10;;;9.23;;
61741;SDS011;47650;49.848;9.620;2022-07-10T00:45:49;9.52;;;8.73;;
61741;SDS011;47650;49.848;9.620;2022-07-10T00:48:15;10.23;;;9.25;;
61741;SDS011;47650;49.848;9.620;2022-07-10T00:50:41;11.57;;;10.57;;
61741;SDS011;47650;49.848;9.620;2022-07-10T00:53:11;12.15;;;11.05;;
61741;SDS011;47650;49.848;9.620;2022-07-10T00:55:39;11.27;;;10.27;;
61741;SDS011;47650;49.848;9.620;2022-07-10T00:58:06;10.05;;;9.05;;
61741;SDS011;47650;49.848;9.620;2022-07-10T01:00:35;9.75;;;8.80;;
61741;SDS011;47650;49.848;9.620;2022-07-10T01:05:35;10.90;;;9.90;;
61741;SDS011;47650;49.848;9.620;2022-07-10T01:08:07;9.65;;;8.85;;
61741;SDS011;47650;49.848;9.620;2022-07-10T01:10:43;10.68;;;9.77;;
61741;SDS011;47650;49.848;9.620;2022-07-10T01:13:09;10.48;;;9.38;;
61741;SDS011;47650;49.848;9.620;2022-07-10T01:15:44;11.45;;;10.32;;
61741;SDS011;47650;49.848;9.620;2022-07-10T01:18:11;11.55;;;10.45;;
61741;SDS011;47650;49.848;9.620;2022-07-10T01:20:38;10.15;;;9.25;;
61741;SDS011;47650;49.848;9.620;2022-07-10T01:23:05;9.43;;;8.52;;
61741;SDS011;47650;49.848;9.620;2022-07-10T01:25:31;10.35;;;9.45;;
61741;SDS011;47650;49.848;9.620;2022-07-10T01:27:58;10.75;;;9.70;;
61741;SDS011;47650;49.848;9.620;2022-07-10T01:30:32;12.68;;;9.73;;
61741;SDS011;47650;49.848;9.620;2022-07-10T01:33:06;10.90;;;9.90;;
61741;SDS011;47650;49.848;9.620;2022-07-10T01:35:32;11.60;;;10.50;;
61741;SDS011;47650;49.848;9.620;2022-07-10T01:40:44;10.70;;;9.88;;
61741;SDS011;47650;49.848;9.620;2022-07-10T01:43:19;10.32;;;9.30;;
61741;SDS011;47650;49.848;9.620;2022-07-10T01:46:01;12.90;;;11.70;;
61741;SDS011;47650;49.848;9.620;2022-07-10T01:48:34;12.47;;;9.80;;
61741;SDS011;47650;49.848;9.620;2022-07-10T01:50:59;12.93;;;9.57;;
61741;SDS011;47650;49.848;9.620;2022-07-10T01:55:55;10.68;;;9.57;;
61741;SDS011;47650;49.848;9.620;2022-07-10T02:01:44;11.18;;;10.07;;
61741;SDS011;47650;49.848;9.620;2022-07-10T02:04:10;11.13;;;10.00;;
61741;SDS011;47650;49.848;9.620;2022-07-10T02:07:01;12.20;;;10.38;;
61741;SDS011;47650;49.848;9.620;2022-07-10T02:09:27;12.23;;;10.95;;
61741;SDS011;47650;49.848;9.620;2022-07-10T02:11:53;10.20;;;9.10;;
61741;SDS011;47650;49.848;9.620;2022-07-10T02:14:19;9.57;;;8.70;;
61741;SDS011;47650;49.848;9.620;2022-07-10T02:16:44;9.23;;;8.32;;
61741;SDS011;47650;49.848;9.620;2022-07-10T02:19:10;8.23;;;7.47;;
61741;SDS011;47650;49.848;9.620;2022-07-10T02:21:36;8.57;;;7.78;;
61741;SDS011;47650;49.848;9.620;2022-07-10T02:24:01;8.80;;;7.43;;
61741;SDS011;47650;49.848;9.620;2022-07-10T02:26:28;10.18;;;9.13;;
61741;SDS011;47650;49.848;9.620;2022-07-10T02:28:53;9.63;;;8.73;;
61741;SDS011;47650;49.848;9.620;2022-07-10T02:31:24;9.00;;;8.20;;
61741;SDS011;47650;49.848;9.620;2022-07-10T02:33:58;9.98;;;9.07;;
61741;SDS011;47650;49.848;9.620;2022-07-10T02:36:24;13.13;;;9.30;;
61741;SDS011;47650;49.848;9.620;2022-07-10T02:38:49;10.23;;;9.13;;
61741;SDS011;47650;49.848;9.620;2022-07-10T02:41:14;11.23;;;8.63;;
61741;SDS011;47650;49.848;9.620;2022-07-10T02:43:40;10.63;;;8.65;;
61741;SDS011;47650;49.848;9.620;2022-07-10T02:46:05;8.93;;;8.00;;
61741;SDS011;47650;49.848;9.620;2022-07-10T02:48:30;10.05;;;9.02;;
61741;SDS011;47650;49.848;9.620;2022-07-10T02:50:55;8.63;;;7.82;;
61741;SDS011;47650;49.848;9.620;2022-07-10T02:53:22;9.45;;;8.13;;
61741;SDS011;47650;49.848;9.620;2022-07-10T02:55:47;11.07;;;8.93;;
61741;SDS011;47650;49.848;9.620;2022-07-10T02:58:13;10.32;;;7.80;;
61741;SDS011;47650;49.848;9.620;2022-07-10T03:00:47;9.88;;;8.85;;
61741;SDS011;47650;49.848;9.620;2022-07-10T03:03:16;9.85;;;8.85;;
61741;SDS011;47650;49.848;9.620;2022-07-10T03:05:44;10.35;;;9.20;;
61741;SDS011;47650;49.848;9.620;2022-07-10T03:08:13;10.32;;;9.10;;
61741;SDS011;47650;49.848;9.620;2022-07-10T03:10:38;11.90;;;10.68;;
61741;SDS011;47650;49.848;9.620;2022-07-10T03:13:21;13.00;;;11.40;;
61741;SDS011;47650;49.848;9.620;2022-07-10T03:15:46;12.93;;;9.63;;
61741;SDS011;47650;49.848;9.620;2022-07-10T03:18:12;11.15;;;9.85;;
61741;SDS011;47650;49.848;9.620;2022-07-10T03:20:39;11.65;;;9.00;;
61741;SDS011;47650;49.848;9.620;2022-07-10T03:23:04;13.13;;;7.80;;
61741;SDS011;47650;49.848;9.620;2022-07-10T03:25:33;11.45;;;8.38;;
61741;SDS011;47650;49.848;9.620;2022-07-10T03:27:58;10.02;;;7.90;;
61741;SDS011;47650;49.848;9.620;2022-07-10T03:30:24;7.93;;;7.13;;
61741;SDS011;47650;49.848;9.620;2022-07-10T03:32:56;8.25;;;7.43;;
61741;SDS011;47650;49.848;9.620;2022-07-10T03:35:25;9.20;;;7.53;;
61741;SDS011;47650;49.848;9.620;2022-07-10T03:37:51;14.43;;;7.85;;
61741;SDS011;47650;49.848;9.620;2022-07-10T03:40:17;11.00;;;7.55;;
61741;SDS011;47650;49.848;9.620;2022-07-10T03:42:51;9.60;;;7.88;;
61741;SDS011;47650;49.848;9.620;2022-07-10T03:45:17;8.10;;;6.95;;
61741;SDS011;47650;49.848;9.620;2022-07-10T03:47:43;8.95;;;8.05;;
61741;SDS011;47650;49.848;9.620;2022-07-10T03:52:46;8.88;;;7.00;;
61741;SDS011;47650;49.848;9.620;2022-07-10T03:55:26;9.95;;;7.28;;
61741;SDS011;47650;49.848;9.620;2022-07-10T03:57:52;11.95;;;7.65;;
61741;SDS011;47650;49.848;9.620;2022-07-10T04:00:25;12.93;;;8.63;;
61741;SDS011;47650;49.848;9.620;2022-07-10T04:03:04;10.05;;;6.45;;
61741;SDS011;47650;49.848;9.620;2022-07-10T04:05:37;7.57;;;5.03;;
61741;SDS011;47650;49.848;9.620;2022-07-10T04:08:03;9.07;;;5.63;;
61741;SDS011;47650;49.848;9.620;2022-07-10T04:10:32;6.25;;;5.65;;
61741;SDS011;47650;49.848;9.620;2022-07-10T04:12:57;7.53;;;4.53;;
61741;SDS011;47650;49.848;9.620;2022-07-10T04:15:23;6.63;;;5.35;;
61741;SDS011;47650;49.848;9.620;2022-07-10T04:17:49;7.75;;;5.07;;
61741;SDS011;47650;49.848;9.620;2022-07-10T04:20:16;5.93;;;5.15;;
61741;SDS011;47650;49.848;9.620;2022-07-10T04:22:41;8.23;;;5.13;;
61741;SDS011;47650;49.848;9.620;2022-07-10T04:25:07;10.48;;;4.80;;
61741;SDS011;47650;49.848;9.620;2022-07-10T04:27:33;7.78;;;5.43;;
61741;SDS011;47650;49.848;9.620;2022-07-10T04:29:59;9.75;;;6.72;;
61741;SDS011;47650;49.848;9.620;2022-07-10T04:32:25;6.30;;;5.18;;
61741;SDS011;47650;49.848;9.620;2022-07-10T04:34:53;6.97;;;6.00;;
61741;SDS011;47650;49.848;9.620;2022-07-10T04:37:18;5.95;;;4.38;;
61741;SDS011;47650;49.848;9.620;2022-07-10T04:39:44;6.38;;;4.80;;
61741;SDS011;47650;49.848;9.620;2022-07-10T04:42:15;6.63;;;4.20;;
61741;SDS011;47650;49.848;9.620;2022-07-10T04:44:41;7.40;;;3.90;;
61741;SDS011;47650;49.848;9.620;2022-07-10T04:47:09;5.00;;;3.70;;
61741;SDS011;47650;49.848;9.620;2022-07-10T04:49:34;4.05;;;3.25;;
61741;SDS011;47650;49.848;9.620;2022-07-10T04:52:05;3.67;;;3.17;;
61741;SDS011;47650;49.848;9.620;2022-07-10T04:54:31;5.40;;;2.85;;
61741;SDS011;47650;49.848;9.620;2022-07-10T04:56:57;5.90;;;2.78;;
61741;SDS011;47650;49.848;9.620;2022-07-10T04:59:23;5.75;;;3.28;;
61741;SDS011;47650;49.848;9.620;2022-07-10T05:01:48;5.28;;;2.40;;
61741;SDS011;47650;49.848;9.620;2022-07-10T05:04:21;3.58;;;2.67;;
61741;SDS011;47650;49.848;9.620;2022-07-10T05:06:46;4.28;;;2.70;;
61741;SDS011;47650;49.848;9.620;2022-07-10T05:09:11;4.55;;;2.40;;
61741;SDS011;47650;49.848;9.620;2022-07-10T05:11:43;3.40;;;2.47;;
61741;SDS011;47650;49.848;9.620;2022-07-10T05:14:08;6.88;;;2.90;;
61741;SDS011;47650;49.848;9.620;2022-07-10T05:16:34;4.82;;;2.42;;
61741;SDS011;47650;49.848;9.620;2022-07-10T05:19:01;9.85;;;2.83;;
61741;SDS011;47650;49.848;9.620;2022-07-10T05:21:27;4.13;;;2.17;;
61741;SDS011;47650;49.848;9.620;2022-07-10T05:23:53;6.85;;;2.47;;
61741;SDS011;47650;49.848;9.620;2022-07-10T05:26:31;4.10;;;2.03;;
61741;SDS011;47650;49.848;9.620;2022-07-10T05:28:57;4.85;;;1.90;;
61741;SDS011;47650;49.848;9.620;2022-07-10T05:31:22;5.03;;;1.80;;
61741;SDS011;47650;49.848;9.620;2022-07-10T05:33:48;3.70;;;1.67;;
61741;SDS011;47650;49.848;9.620;2022-07-10T05:36:13;5.13;;;1.67;;
61741;SDS011;47650;49.848;9.620;2022-07-10T05:38:41;4.70;;;1.48;;
61741;SDS011;47650;49.848;9.620;2022-07-10T05:41:06;5.03;;;1.98;;
61741;SDS011;47650;49.848;9.620;2022-07-10T05:43:32;7.93;;;1.52;;
61741;SDS011;47650;49.848;9.620;2022-07-10T05:45:57;4.97;;;1.70;;
61741;SDS011;47650;49.848;9.620;2022-07-10T05:48:22;4.50;;;1.80;;
61741;SDS011;47650;49.848;9.620;2022-07-10T05:50:52;11.13;;;2.00;;
61741;SDS011;47650;49.848;9.620;2022-07-10T05:53:24;4.90;;;1.65;;
61741;SDS011;47650;49.848;9.620;2022-07-10T05:55:52;4.20;;;1.23;;
61741;SDS011;47650;49.848;9.620;2022-07-10T05:58:23;3.72;;;1.23;;
61741;SDS011;47650;49.848;9.620;2022-07-10T06:00:50;3.72;;;1.45;;
61741;SDS011;47650;49.848;9.620;2022-07-10T06:03:16;5.07;;;1.50;;
61741;SDS011;47650;49.848;9.620;2022-07-10T06:05:42;6.38;;;1.77;;
61741;SDS011;47650;49.848;9.620;2022-07-10T06:08:07;4.07;;;1.30;;
61741;SDS011;47650;49.848;9.620;2022-07-10T06:10:32;4.35;;;1.42;;
61741;SDS011;47650;49.848;9.620;2022-07-10T06:13:11;2.55;;;1.23;;
61741;SDS011;47650;49.848;9.620;2022-07-10T06:15:36;2.72;;;1.23;;
61741;SDS011;47650;49.848;9.620;2022-07-10T06:20:31;2.80;;;1.30;;
61741;SDS011;47650;49.848;9.620;2022-07-10T06:22:57;4.47;;;1.42;;
61741;SDS011;47650;49.848;9.620;2022-07-10T06:25:25;5.18;;;1.60;;
61741;SDS011;47650;49.848;9.620;2022-07-10T06:27:50;2.65;;;1.00;;
61741;SDS011;47650;49.848;9.620;2022-07-10T06:30:16;5.20;;;1.38;;
61741;SDS011;47650;49.848;9.620;2022-07-10T06:32:42;5.35;;;1.38;;
61741;SDS011;47650;49.848;9.620;2022-07-10T06:35:09;3.85;;;1.65;;
61741;SDS011;47650;49.848;9.620;2022-07-10T06:37:35;5.53;;;1.85;;
61741;SDS011;47650;49.848;9.620;2022-07-10T06:40:01;3.05;;;1.15;;
61741;SDS011;47650;49.848;9.620;2022-07-10T06:42:26;4.47;;;1.33;;
61741;SDS011;47650;49.848;9.620;2022-07-10T06:44:52;4.93;;;1.10;;
61741;SDS011;47650;49.848;9.620;2022-07-10T06:47:18;2.80;;;0.98;;
61741;SDS011;47650;49.848;9.620;2022-07-10T06:50:08;5.95;;;1.45;;
61741;SDS011;47650;49.848;9.620;2022-07-10T06:52:34;3.85;;;1.00;;
61741;SDS011;47650;49.848;9.620;2022-07-10T06:55:04;3.08;;;1.20;;
61741;SDS011;47650;49.848;9.620;2022-07-10T06:57:31;6.93;;;1.58;;
61741;SDS011;47650;49.848;9.620;2022-07-10T06:59:56;4.80;;;1.55;;
61741;SDS011;47650;49.848;9.620;2022-07-10T07:02:21;1.75;;;0.98;;
61741;SDS011;47650;49.848;9.620;2022-07-10T07:04:47;4.53;;;1.20;;
61741;SDS011;47650;49.848;9.620;2022-07-10T07:07:13;3.20;;;1.05;;
61741;SDS011;47650;49.848;9.620;2022-07-10T07:09:53;3.00;;;1.50;;
61741;SDS011;47650;49.848;9.620;2022-07-10T07:12:20;2.92;;;1.20;;
61741;SDS011;47650;49.848;9.620;2022-07-10T07:14:45;2.42;;;1.17;;
61741;SDS011;47650;49.848;9.620;2022-07-10T07:17:13;2.53;;;0.88;;
61741;SDS011;47650;49.848;9.620;2022-07-10T07:19:40;7.65;;;1.85;;
61741;SDS011;47650;49.848;9.620;2022-07-10T07:22:24;2.65;;;1.17;;
61741;SDS011;47650;49.848;9.620;2022-07-10T07:25:09;2.97;;;1.08;;
61741;SDS011;47650;49.848;9.620;2022-07-10T07:27:47;3.53;;;0.95;;
61741;SDS011;47650;49.848;9.620;2022-07-10T07:30:13;2.97;;;0.88;;
61741;SDS011;47650;49.848;9.620;2022-07-10T07:32:43;2.85;;;0.90;;
61741;SDS011;47650;49.848;9.620;2022-07-10T07:35:10;2.85;;;0.80;;
61741;SDS011;47650;49.848;9.620;2022-07-10T07:37:38;4.53;;;1.20;;
61741;SDS011;47650;49.848;9.620;2022-07-10T07:40:04;2.65;;;0.88;;
61741;SDS011;47650;49.848;9.620;2022-07-10T07:42:31;3.60;;;0.90;;
61741;SDS011;47650;49.848;9.620;2022-07-10T07:44:57;2.70;;;1.05;;
61741;SDS011;47650;49.848;9.620;2022-07-10T07:47:22;1.90;;;1.08;;
61741;SDS011;47650;49.848;9.620;2022-07-10T07:49:48;1.95;;;0.98;;
61741;SDS011;47650;49.848;9.620;2022-07-10T07:52:13;1.90;;;0.77;;
61741;SDS011;47650;49.848;9.620;2022-07-10T07:54:41;2.78;;;0.93;;
61741;SDS011;47650;49.848;9.620;2022-07-10T07:57:06;1.77;;;0.80;;
61741;SDS011;47650;49.848;9.620;2022-07-10T07:59:31;2.72;;;0.80;;
61741;SDS011;47650;49.848;9.620;2022-07-10T08:01:58;2.38;;;0.95;;
61741;SDS011;47650;49.848;9.620;2022-07-10T08:04:29;2.80;;;0.93;;
61741;SDS011;47650;49.848;9.620;2022-07-10T08:06:55;1.67;;;0.80;;
61741;SDS011;47650;49.848;9.620;2022-07-10T08:09:21;2.53;;;1.00;;
61741;SDS011;47650;49.848;9.620;2022-07-10T08:11:47;2.00;;;0.85;;
61741;SDS011;47650;49.848;9.620;2022-07-10T08:14:12;4.55;;;1.33;;
61741;SDS011;47650;49.848;9.620;2022-07-10T08:16:39;1.85;;;1.00;;
61741;SDS011;47650;49.848;9.620;2022-07-10T08:19:05;2.42;;;1.00;;
61741;SDS011;47650;49.848;9.620;2022-07-10T08:21:31;2.60;;;1.00;;
61741;SDS011;47650;49.848;9.620;2022-07-10T08:23:57;3.15;;;1.00;;
61741;SDS011;47650;49.848;9.620;2022-07-10T08:26:24;3.40;;;1.33;;
61741;SDS011;47650;49.848;9.620;2022-07-10T08:28:49;3.53;;;1.20;;
61741;SDS011;47650;49.848;9.620;2022-07-10T08:31:16;2.47;;;1.25;;
61741;SDS011;47650;49.848;9.620;2022-07-10T08:33:41;2.80;;;1.10;;
61741;SDS011;47650;49.848;9.620;2022-07-10T08:36:08;1.80;;;0.90;;
61741;SDS011;47650;49.848;9.620;2022-07-10T08:38:33;3.88;;;1.10;;
61741;SDS011;47650;49.848;9.620;2022-07-10T08:40:58;3.50;;;1.50;;
61741;SDS011;47650;49.848;9.620;2022-07-10T08:43:27;2.58;;;1.40;;
61741;SDS011;47650;49.848;9.620;2022-07-10T08:45:53;2.83;;;0.85;;
61741;SDS011;47650;49.848;9.620;2022-07-10T08:48:22;1.92;;;1.10;;
61741;SDS011;47650;49.848;9.620;2022-07-10T08:50:51;2.50;;;1.13;;
61741;SDS011;47650;49.848;9.620;2022-07-10T08:53:30;3.20;;;1.20;;
61741;SDS011;47650;49.848;9.620;2022-07-10T08:55:57;2.47;;;0.88;;
61741;SDS011;47650;49.848;9.620;2022-07-10T08:58:23;2.47;;;1.20;;
61741;SDS011;47650;49.848;9.620;2022-07-10T09:00:48;2.15;;;1.00;;
61741;SDS011;47650;49.848;9.620;2022-07-10T09:03:24;2.40;;;0.98;;
61741;SDS011;47650;49.848;9.620;2022-07-10T09:05:49;3.47;;;1.27;;
61741;SDS011;47650;49.848;9.620;2022-07-10T09:08:27;2.35;;;1.00;;
61741;SDS011;47650;49.848;9.620;2022-07-10T09:11:30;2.75;;;0.93;;
61741;SDS011;47650;49.848;9.620;2022-07-10T09:13:54;3.95;;;1.98;;
61741;SDS011;47650;49.848;9.620;2022-07-10T09:16:27;6.18;;;0.90;;
61741;SDS011;47650;49.848;9.620;2022-07-10T09:18:54;2.28;;;1.02;;
61741;SDS011;47650;49.848;9.620;2022-07-10T09:21:22;2.38;;;0.90;;
61741;SDS011;47650;49.848;9.620;2022-07-10T09:23:49;3.10;;;1.00;;
61741;SDS011;47650;49.848;9.620;2022-07-10T09:26:16;4.18;;;1.17;;
61741;SDS011;47650;49.848;9.620;2022-07-10T09:28:44;4.35;;;1.00;;
61741;SDS011;47650;49.848;9.620;2022-07-10T09:31:09;2.20;;;0.85;;
61741;SDS011;47650;49.848;9.620;2022-07-10T09:33:35;3.50;;;1.10;;
61741;SDS011;47650;49.848;9.620;2022-07-10T09:46:39;6.15;;;2.28;;
61741;SDS011;47650;49.848;9.620;2022-07-10T09:49:16;2.40;;;1.40;;
61741;SDS011;47650;49.848;9.620;2022-07-10T09:51:42;1.60;;;1.10;;
61741;SDS011;47650;49.848;9.620;2022-07-10T09:54:08;2.95;;;1.00;;
61741;SDS011;47650;49.848;9.620;2022-07-10T09:59:21;2.78;;;1.20;;
61741;SDS011;47650;49.848;9.620;2022-07-10T10:04:15;3.42;;;1.10;;
61741;SDS011;47650;49.848;9.620;2022-07-10T10:06:43;2.78;;;1.80;;
61741;SDS011;47650;49.848;9.620;2022-07-10T10:11:54;1.98;;;1.30;;
61741;SDS011;47650;49.848;9.620;2022-07-10T10:14:23;3.97;;;1.48;;
61741;SDS011;47650;49.848;9.620;2022-07-10T10:16:49;3.88;;;1.20;;
61741;SDS011;47650;49.848;9.620;2022-07-10T10:19:15;3.35;;;1.20;;
61741;SDS011;47650;49.848;9.620;2022-07-10T10:22:00;2.80;;;1.23;;
61741;SDS011;47650;49.848;9.620;2022-07-10T10:24:26;3.22;;;1.05;;
61741;SDS011;47650;49.848;9.620;2022-07-10T10:26:57;2.85;;;1.00;;
61741;SDS011;47650;49.848;9.620;2022-07-10T10:29:23;4.97;;;1.25;;
61741;SDS011;47650;49.848;9.620;2022-07-10T10:31:48;4.22;;;1.05;;
61741;SDS011;47650;49.848;9.620;2022-07-10T10:34:36;3.40;;;1.45;;
61741;SDS011;47650;49.848;9.620;2022-07-10T10:37:05;2.95;;;1.05;;
61741;SDS011;47650;49.848;9.620;2022-07-10T10:39:50;2.42;;;1.30;;
61741;SDS011;47650;49.848;9.620;2022-07-10T10:42:36;3.03;;;1.42;;
61741;SDS011;47650;49.848;9.620;2022-07-10T10:45:23;5.80;;;1.50;;
61741;SDS011;47650;49.848;9.620;2022-07-10T10:48:06;5.90;;;1.88;;
61741;SDS011;47650;49.848;9.620;2022-07-10T10:53:03;4.10;;;1.15;;
61741;SDS011;47650;49.848;9.620;2022-07-10T10:55:28;3.40;;;1.80;;
61741;SDS011;47650;49.848;9.620;2022-07-10T10:57:54;3.30;;;1.17;;
61741;SDS011;47650;49.848;9.620;2022-07-10T11:00:40;2.58;;;1.17;;
61741;SDS011;47650;49.848;9.620;2022-07-10T11:03:11;3.60;;;1.10;;
61741;SDS011;47650;49.848;9.620;2022-07-10T11:05:39;3.38;;;1.10;;
61741;SDS011;47650;49.848;9.620;2022-07-10T11:08:06;2.30;;;0.90;;
61741;SDS011;47650;49.848;9.620;2022-07-10T11:10:35;2.83;;;1.00;;
61741;SDS011;47650;49.848;9.620;2022-07-10T11:13:04;1.52;;;0.90;;
61741;SDS011;47650;49.848;9.620;2022-07-10T11:18:10;2.55;;;1.08;;
61741;SDS011;47650;49.848;9.620;2022-07-10T11:20:50;3.50;;;1.45;;
61741;SDS011;47650;49.848;9.620;2022-07-10T11:26:06;4.03;;;1.10;;
61741;SDS011;47650;49.848;9.620;2022-07-10T11:31:25;4.78;;;1.65;;
61741;SDS011;47650;49.848;9.620;2022-07-10T11:33:52;2.92;;;1.85;;
61741;SDS011;47650;49.848;9.620;2022-07-10T11:36:26;5.40;;;1.20;;
61741;SDS011;47650;49.848;9.620;2022-07-10T11:39:03;3.50;;;1.10;;
61741;SDS011;47650;49.848;9.620;2022-07-10T11:41:32;4.38;;;1.10;;
61741;SDS011;47650;49.848;9.620;2022-07-10T11:43:58;2.05;;;1.10;;
61741;SDS011;47650;49.848;9.620;2022-07-10T11:46:28;3.88;;;0.95;;
61741;SDS011;47650;49.848;9.620;2022-07-10T11:51:27;2.70;;;0.90;;
61741;SDS011;47650;49.848;9.620;2022-07-10T11:54:12;3.97;;;1.40;;
61741;SDS011;47650;49.848;9.620;2022-07-10T11:56:41;3.08;;;1.10;;
61741;SDS011;47650;49.848;9.620;2022-07-10T11:59:11;2.50;;;1.13;;
61741;SDS011;47650;49.848;9.620;2022-07-10T12:01:41;3.03;;;1.52;;
61741;SDS011;47650;49.848;9.620;2022-07-10T12:04:07;3.42;;;1.27;;
61741;SDS011;47650;49.848;9.620;2022-07-10T12:06:38;3.55;;;1.33;;
61741;SDS011;47650;49.848;9.620;2022-07-10T12:09:09;3.35;;;1.33;;
61741;SDS011;47650;49.848;9.620;2022-07-10T12:11:36;1.70;;;1.00;;
61741;SDS011;47650;49.848;9.620;2022-07-10T12:14:14;2.25;;;1.13;;
61741;SDS011;47650;49.848;9.620;2022-07-10T12:16:44;3.13;;;1.15;;
61741;SDS011;47650;49.848;9.620;2022-07-10T12:19:11;3.55;;;1.30;;
61741;SDS011;47650;49.848;9.620;2022-07-10T12:21:39;2.70;;;1.30;;
61741;SDS011;47650;49.848;9.620;2022-07-10T12:24:06;4.00;;;1.45;;
61741;SDS011;47650;49.848;9.620;2022-07-10T12:26:33;2.40;;;1.08;;
61741;SDS011;47650;49.848;9.620;2022-07-10T12:29:05;3.13;;;1.13;;
61741;SDS011;47650;49.848;9.620;2022-07-10T12:31:32;3.53;;;1.00;;
61741;SDS011;47650;49.848;9.620;2022-07-10T12:34:03;3.33;;;1.45;;
61741;SDS011;47650;49.848;9.620;2022-07-10T12:42:34;2.60;;;1.10;;
61741;SDS011;47650;49.848;9.620;2022-07-10T12:45:09;2.30;;;1.13;;
61741;SDS011;47650;49.848;9.620;2022-07-10T12:47:44;1.90;;;1.40;;
61741;SDS011;47650;49.848;9.620;2022-07-10T12:50:13;4.50;;;1.90;;
61741;SDS011;47650;49.848;9.620;2022-07-10T12:52:45;3.55;;;1.35;;
61741;SDS011;47650;49.848;9.620;2022-07-10T12:55:11;2.70;;;1.10;;
61741;SDS011;47650;49.848;9.620;2022-07-10T12:57:53;3.72;;;1.48;;
61741;SDS011;47650;49.848;9.620;2022-07-10T13:00:24;2.42;;;1.08;;
61741;SDS011;47650;49.848;9.620;2022-07-10T13:03:16;3.00;;;1.20;;
61741;SDS011;47650;49.848;9.620;2022-07-10T13:05:47;3.30;;;1.35;;
61741;SDS011;47650;49.848;9.620;2022-07-10T13:08:17;3.50;;;1.10;;
61741;SDS011;47650;49.848;9.620;2022-07-10T13:10:50;2.55;;;1.00;;
61741;SDS011;47650;49.848;9.620;2022-07-10T13:13:23;4.35;;;1.50;;
61741;SDS011;47650;49.848;9.620;2022-07-10T13:15:49;3.53;;;1.23;;
61741;SDS011;47650;49.848;9.620;2022-07-10T13:18:19;2.47;;;1.10;;
61741;SDS011;47650;49.848;9.620;2022-07-10T13:20:46;3.25;;;1.00;;
61741;SDS011;47650;49.848;9.620;2022-07-10T13:23:13;2.80;;;1.30;;
61741;SDS011;47650;49.848;9.620;2022-07-10T13:25:39;1.98;;;1.10;;
61741;SDS011;47650;49.848;9.620;2022-07-10T13:28:07;2.80;;;1.00;;
61741;SDS011;47650;49.848;9.620;2022-07-10T13:30:34;2.78;;;1.10;;
61741;SDS011;47650;49.848;9.620;2022-07-10T13:33:01;2.72;;;1.02;;
61741;SDS011;47650;49.848;9.620;2022-07-10T13:35:28;3.78;;;1.30;;
61741;SDS011;47650;49.848;9.620;2022-07-10T13:37:55;1.83;;;1.00;;
61741;SDS011;47650;49.848;9.620;2022-07-10T13:40:25;2.40;;;1.10;;
61741;SDS011;47650;49.848;9.620;2022-07-10T13:42:51;2.25;;;1.20;;
61741;SDS011;47650;49.848;9.620;2022-07-10T13:45:17;3.45;;;1.10;;
61741;SDS011;47650;49.848;9.620;2022-07-10T13:47:44;5.20;;;1.42;;
61741;SDS011;47650;49.848;9.620;2022-07-10T13:50:09;4.57;;;1.30;;
61741;SDS011;47650;49.848;9.620;2022-07-10T13:52:34;3.07;;;1.47;;
61741;SDS011;47650;49.848;9.620;2022-07-10T13:55:02;6.35;;;1.27;;
61741;SDS011;47650;49.848;9.620;2022-07-10T13:57:29;4.28;;;1.30;;
61741;SDS011;47650;49.848;9.620;2022-07-10T13:59:55;2.63;;;1.27;;
61741;SDS011;47650;49.848;9.620;2022-07-10T14:02:20;5.18;;;1.48;;
61741;SDS011;47650;49.848;9.620;2022-07-10T14:04:47;1.40;;;1.00;;
61741;SDS011;47650;49.848;9.620;2022-07-10T14:07:12;2.70;;;1.10;;
61741;SDS011;47650;49.848;9.620;2022-07-10T14:09:38;3.25;;;1.52;;
61741;SDS011;47650;49.848;9.620;2022-07-10T14:12:03;4.32;;;1.20;;
61741;SDS011;47650;49.848;9.620;2022-07-10T14:16:57;2.97;;;1.23;;
61741;SDS011;47650;49.848;9.620;2022-07-10T14:19:22;4.70;;;1.42;;
61741;SDS011;47650;49.848;9.620;2022-07-10T14:21:47;4.07;;;1.77;;
61741;SDS011;47650;49.848;9.620;2022-07-10T14:24:13;5.47;;;1.20;;
61741;SDS011;47650;49.848;9.620;2022-07-10T14:26:38;3.30;;;1.17;;
61741;SDS011;47650;49.848;9.620;2022-07-10T14:29:03;3.70;;;1.17;;
61741;SDS011;47650;49.848;9.620;2022-07-10T14:31:30;3.75;;;1.10;;
61741;SDS011;47650;49.848;9.620;2022-07-10T14:33:56;2.75;;;1.42;;
61741;SDS011;47650;49.848;9.620;2022-07-10T14:36:21;5.55;;;1.30;;
61741;SDS011;47650;49.848;9.620;2022-07-10T14:38:55;3.17;;;1.20;;
61741;SDS011;47650;49.848;9.620;2022-07-10T14:41:22;2.33;;;1.25;;
61741;SDS011;47650;49.848;9.620;2022-07-10T14:43:48;6.22;;;1.15;;
61741;SDS011;47650;49.848;9.620;2022-07-10T14:46:14;4.35;;;1.42;;
61741;SDS011;47650;49.848;9.620;2022-07-10T14:48:39;4.63;;;1.17;;
61741;SDS011;47650;49.848;9.620;2022-07-10T14:51:05;2.88;;;1.17;;
61741;SDS011;47650;49.848;9.620;2022-07-10T14:53:30;4.70;;;1.25;;
61741;SDS011;47650;49.848;9.620;2022-07-10T14:55:59;5.22;;;0.95;;
61741;SDS011;47650;49.848;9.620;2022-07-10T14:58:25;4.30;;;1.48;;
61741;SDS011;47650;49.848;9.620;2022-07-10T15:00:51;7.07;;;1.25;;
61741;SDS011;47650;49.848;9.620;2022-07-10T15:03:16;3.13;;;1.20;;
61741;SDS011;47650;49.848;9.620;2022-07-10T15:05:43;3.03;;;1.00;;
61741;SDS011;47650;49.848;9.620;2022-07-10T15:08:09;3.05;;;1.58;;
61741;SDS011;47650;49.848;9.620;2022-07-10T15:10:34;3.65;;;1.38;;
61741;SDS011;47650;49.848;9.620;2022-07-10T15:12:59;5.90;;;1.63;;
61741;SDS011;47650;49.848;9.620;2022-07-10T15:15:26;2.78;;;0.93;;
61741;SDS011;47650;49.848;9.620;2022-07-10T15:17:51;5.30;;;1.58;;
61741;SDS011;47650;49.848;9.620;2022-07-10T15:20:16;3.60;;;1.40;;
61741;SDS011;47650;49.848;9.620;2022-07-10T15:22:44;5.90;;;1.40;;
61741;SDS011;47650;49.848;9.620;2022-07-10T15:25:09;4.05;;;1.23;;
61741;SDS011;47650;49.848;9.620;2022-07-10T15:27:34;4.13;;;1.33;;
61741;SDS011;47650;49.848;9.620;2022-07-10T15:30:00;4.20;;;1.38;;
61741;SDS011;47650;49.848;9.620;2022-07-10T15:32:26;3.85;;;1.20;;
61741;SDS011;47650;49.848;9.620;2022-07-10T15:34:53;4.32;;;1.40;;
61741;SDS011;47650;49.848;9.620;2022-07-10T15:37:18;3.15;;;1.40;;
61741;SDS011;47650;49.848;9.620;2022-07-10T15:39:43;3.53;;;1.23;;
61741;SDS011;47650;49.848;9.620;2022-07-10T15:42:12;4.75;;;1.48;;
61741;SDS011;47650;49.848;9.620;2022-07-10T15:44:38;5.35;;;1.65;;
61741;SDS011;47650;49.848;9.620;2022-07-10T15:47:05;3.67;;;1.27;;
61741;SDS011;47650;49.848;9.620;2022-07-10T15:49:31;2.60;;;1.30;;